Time;durP1;ratioP1;P1;durP2;ratioP2;P2;SDS_P1;SDS_P2;PMS_P1;PMS_P2;Temp;Humidity;BMP_temperature;BMP_pressure;BME280_temperature;BME280_humidity;BME280_pressure;Samples;Min_cycle;Max_cycle;Signal;HPM_P1;HPM_P2
2022/08/13 00:01:40;;;;;;;3.88;2.67;;;23.30;46.10;;;;;;5132175;28;20051;-63
2022/08/13 00:04:14;;;;;;;4.07;2.60;;;23.30;46.10;;;;;;5132134;28;20383;-63
2022/08/13 00:09:09;;;;;;;3.30;2.78;;;23.30;46.30;;;;;;5132355;28;20039;-63
2022/08/13 00:14:24;;;;;;;4.13;2.90;;;23.10;46.30;;;;;;5132062;28;20631;-64
2022/08/13 00:16:50;;;;;;;3.30;2.40;;;23.10;46.50;;;;;;5133559;28;20043;-68
2022/08/13 00:19:19;;;;;;;4.40;2.38;;;23.10;46.50;;;;;;5133518;28;20055;-68
2022/08/13 00:21:46;;;;;;;4.18;3.05;;;23.00;46.60;;;;;;5132006;28;20490;-68
2022/08/13 00:24:12;;;;;;;3.53;2.30;;;23.00;46.70;;;;;;5132039;28;20482;-68
2022/08/13 00:26:37;;;;;;;2.90;2.35;;;23.00;46.70;;;;;;5101192;27;20046;-68
2022/08/13 00:29:03;;;;;;;4.47;2.38;;;23.00;46.90;;;;;;5137162;27;20039;-68
2022/08/13 00:31:31;;;;;;;3.83;2.47;;;22.90;46.90;;;;;;5102156;27;20046;-67
2022/08/13 00:33:57;;;;;;;3.40;2.67;;;22.90;47.00;;;;;;5135932;27;20096;-69
2022/08/13 00:36:24;;;;;;;4.20;2.80;;;22.90;47.10;;;;;;5135903;27;20045;-69
2022/08/13 00:38:50;;;;;;;4.68;2.55;;;22.80;47.10;;;;;;5137313;27;20042;-68
2022/08/13 00:44:01;;;;;;;;;;;22.80;47.40;;;;;;5136306;27;20402;-64
2022/08/13 00:46:26;;;;;;;3.78;2.63;;;22.70;46.90;;;;;;5118758;27;20030;-64
2022/08/13 00:48:54;;;;;;;4.63;2.70;;;22.70;47.40;;;;;;5136898;27;20118;-64
2022/08/13 00:51:25;;;;;;;2.90;2.47;;;22.70;47.60;;;;;;5136754;27;20513;-64
2022/08/13 00:53:54;;;;;;;2.78;2.30;;;22.70;47.80;;;;;;5136631;27;20139;-64
2022/08/13 00:56:23;;;;;;;4.82;3.08;;;22.60;47.70;;;;;;5135272;27;20096;-64
2022/08/13 00:58:50;;;;;;;2.80;2.42;;;22.60;47.80;;;;;;5135446;27;20047;-64
2022/08/13 01:01:17;;;;;;;4.32;2.80;;;22.60;47.90;;;;;;5136471;27;20122;-65
2022/08/13 01:03:44;;;;;;;3.88;2.83;;;22.50;47.80;;;;;;5118436;27;20031;-64
2022/08/13 01:06:10;;;;;;;3.00;2.58;;;22.50;47.90;;;;;;5101068;27;20122;-68
2022/08/13 01:08:40;;;;;;;7.22;3.35;;;22.50;48.00;;;;;;5135263;27;20122;-68
2022/08/13 01:11:13;;;;;;;3.00;2.47;;;22.50;48.20;;;;;;5136694;27;20079;-68
2022/08/13 01:13:41;;;;;;;3.42;2.67;;;22.50;48.20;;;;;;5135560;27;20577;-68
2022/08/13 01:16:13;;;;;;;5.13;2.55;;;22.40;48.20;;;;;;5135173;27;20054;-68
2022/08/13 01:18:58;;;;;;;5.95;2.33;;;22.40;48.20;;;;;;5135081;27;20367;-68
2022/08/13 01:21:30;;;;;;;5.10;2.60;;;22.30;48.10;;;;;;5134786;27;20043;-68
2022/08/13 01:23:56;;;;;;;4.28;2.63;;;22.30;48.30;;;;;;5117984;27;20039;-69
2022/08/13 01:26:22;;;;;;;3.45;2.88;;;22.30;48.40;;;;;;5134847;27;20458;-68
2022/08/13 01:28:50;;;;;;;3.88;2.60;;;22.20;48.50;;;;;;5100782;27;20279;-68
2022/08/13 01:31:18;;;;;;;3.40;2.50;;;22.20;48.60;;;;;;5134826;27;20050;-68
2022/08/13 01:33:48;;;;;;;3.40;2.70;;;22.20;48.60;;;;;;5136143;27;20363;-68
2022/08/13 01:36:15;;;;;;;3.30;2.58;;;22.10;48.70;;;;;;5134450;27;20046;-68
2022/08/13 01:38:42;;;;;;;4.55;2.88;;;22.10;48.80;;;;;;5135653;27;20046;-67
2022/08/13 01:41:09;;;;;;;4.70;2.75;;;22.10;48.90;;;;;;5117575;27;20046;-68
2022/08/13 01:43:38;;;;;;;3.13;2.50;;;22.10;48.90;;;;;;5134688;27;20039;-68
2022/08/13 01:46:05;;;;;;;4.80;2.60;;;22.00;48.90;;;;;;5100440;27;20601;-68
2022/08/13 01:51:21;;;;;;;3.60;2.78;;;22.00;48.90;;;;;;5135841;27;20035;-68
2022/08/13 01:53:58;;;;;;;3.15;2.50;;;21.90;49.30;;;;;;5134488;27;20118;-69
2022/08/13 01:56:26;;;;;;;4.60;2.88;;;21.90;49.00;;;;;;5134189;27;20043;-69
2022/08/13 01:58:54;;;;;;;3.63;2.30;;;21.90;49.10;;;;;;5134046;27;20070;-68
2022/08/13 02:01:25;;;;;;;4.25;2.92;;;21.90;49.10;;;;;;5134139;27;20120;-63
2022/08/13 02:03:56;;;;;;;4.35;3.25;;;21.80;49.00;;;;;;5117798;27;20035;-63
2022/08/13 02:06:28;;;;;;;3.58;2.88;;;21.80;49.10;;;;;;5134300;27;20042;-64
2022/08/13 02:09:00;;;;;;;4.45;2.85;;;21.70;49.10;;;;;;5135088;27;20035;-64
2022/08/13 02:11:27;;;;;;;4.20;2.72;;;21.70;49.10;;;;;;5134090;27;20486;-64
2022/08/13 02:13:54;;;;;;;4.15;2.58;;;21.70;49.20;;;;;;5082788;27;20054;-64
2022/08/13 02:16:20;;;;;;;2.95;2.22;;;21.70;49.60;;;;;;5134025;27;20118;-64
2022/08/13 02:18:46;;;;;;;4.57;3.08;;;21.70;49.30;;;;;;5100060;27;20438;-63
2022/08/13 02:21:12;;;;;;;4.13;2.53;;;21.60;49.30;;;;;;5134792;27;20063;-63
2022/08/13 02:23:38;;;;;;;3.20;2.28;;;21.60;49.30;;;;;;5135149;27;20045;-64
2022/08/13 02:26:05;;;;;;;3.83;3.03;;;21.60;49.70;;;;;;5133820;27;20065;-63
2022/08/13 02:28:39;;;;;;;3.83;2.17;;;21.60;49.40;;;;;;5133538;27;20043;-63
2022/08/13 02:31:06;;;;;;;3.70;2.60;;;21.50;49.40;;;;;;5133509;27;20554;-63
2022/08/13 02:33:34;;;;;;;3.40;2.70;;;21.50;49.40;;;;;;5133508;27;20057;-63
2022/08/13 02:36:00;;;;;;;2.65;2.35;;;21.50;49.50;;;;;;5134619;27;20039;-63
2022/08/13 02:38:26;;;;;;;4.72;2.65;;;21.50;49.50;;;;;;5133434;27;20046;-66
2022/08/13 02:43:36;;;;;;;3.03;2.50;;;21.40;50.00;;;;;;5134797;27;20435;-69
2022/08/13 02:46:03;;;;;;;5.22;2.90;;;21.40;49.60;;;;;;5099514;27;20045;-69
2022/08/13 02:48:29;;;;;;;4.65;2.95;;;21.40;49.70;;;;;;5134783;27;20047;-69
2022/08/13 02:50:56;;;;;;;3.88;2.33;;;21.40;49.80;;;;;;5133630;27;20058;-69
2022/08/13 02:53:23;;;;;;;4.93;2.90;;;21.30;49.70;;;;;;5116156;27;20070;-69
2022/08/13 02:55:49;;;;;;;5.72;2.72;;;21.30;49.70;;;;;;5099137;27;20047;-69
2022/08/13 02:58:19;;;;;;;4.60;3.05;;;21.30;49.70;;;;;;5134135;27;20047;-65
2022/08/13 03:00:49;;;;;;;3.30;2.80;;;21.30;49.70;;;;;;5132948;27;20065;-65
2022/08/13 03:03:19;;;;;;;4.03;2.58;;;21.30;49.80;;;;;;5133269;27;20408;-65
2022/08/13 03:05:45;;;;;;;3.28;2.63;;;21.30;49.80;;;;;;5133108;27;20054;-68
2022/08/13 03:08:11;;;;;;;4.75;2.75;;;21.20;49.80;;;;;;5134230;27;20470;-69
2022/08/13 03:10:39;;;;;;;3.03;2.72;;;21.20;49.90;;;;;;5132942;27;20046;-68
2022/08/13 03:13:16;;;;;;;3.33;2.88;;;21.20;49.90;;;;;;5132947;27;20042;-69
2022/08/13 03:15:44;;;;;;;4.60;2.88;;;21.10;49.90;;;;;;5134159;27;20031;-69
2022/08/13 03:18:11;;;;;;;5.45;3.00;;;21.10;49.90;;;;;;5134247;27;20042;-69
2022/08/13 03:20:38;;;;;;;4.75;2.92;;;21.10;49.90;;;;;;5132944;27;20403;-69
2022/08/13 03:23:04;;;;;;;4.10;3.03;;;21.00;49.90;;;;;;5098657;28;20047;-68
2022/08/13 03:25:30;;;;;;;3.67;2.70;;;21.00;49.90;;;;;;5132825;27;20054;-68
2022/08/13 03:27:59;;;;;;;4.65;2.92;;;21.00;49.90;;;;;;5132607;27;20039;-68
2022/08/13 03:30:34;;;;;;;3.05;2.45;;;21.00;50.00;;;;;;5098510;28;20050;-68
2022/08/13 03:33:17;;;;;;;4.10;3.03;;;21.00;50.10;;;;;;5132713;27;20047;-68
2022/08/13 03:35:44;;;;;;;3.88;3.17;;;20.90;50.00;;;;;;5132771;27;20051;-68
2022/08/13 03:38:12;;;;;;;3.63;2.88;;;20.90;50.00;;;;;;5132650;28;20050;-68
2022/08/13 03:43:23;;;;;;;4.60;3.17;;;20.90;50.10;;;;;;5132697;28;20458;-68
2022/08/13 03:45:49;;;;;;;4.03;2.53;;;20.80;50.10;;;;;;5132484;28;20067;-68
2022/08/13 03:48:16;;;;;;;3.00;2.70;;;20.80;50.10;;;;;;5132481;28;20047;-68
2022/08/13 03:50:46;;;;;;;4.30;3.00;;;20.80;50.20;;;;;;5132662;28;20035;-68
2022/08/13 03:53:12;;;;;;;4.50;2.85;;;20.80;50.20;;;;;;5132422;28;20039;-69
2022/08/13 03:55:39;;;;;;;7.88;3.28;;;20.70;50.20;;;;;;5132509;28;20484;-64
2022/08/13 03:58:07;;;;;;;4.30;2.70;;;20.70;50.20;;;;;;5132389;28;20138;-64
2022/08/13 04:00:36;;;;;;;3.75;2.60;;;20.60;50.20;;;;;;5135366;27;20047;-63
2022/08/13 04:03:28;;;;;;;4.72;2.78;;;20.60;50.20;;;;;;5136387;27;20050;-63
2022/08/13 04:06:16;;;;;;;3.63;2.55;;;20.60;50.30;;;;;;5136393;27;20047;-64
2022/08/13 04:08:45;;;;;;;3.20;2.75;;;20.50;50.30;;;;;;5137711;27;20083;-63
2022/08/13 04:11:14;;;;;;;2.53;2.20;;;20.50;50.40;;;;;;5136525;27;20039;-65
2022/08/13 04:13:41;;;;;;;5.78;3.20;;;20.50;50.50;;;;;;5136212;27;20047;-63
2022/08/13 04:16:10;;;;;;;4.18;2.90;;;20.50;50.60;;;;;;5136155;27;20035;-64
2022/08/13 04:18:36;;;;;;;3.83;3.15;;;20.40;50.50;;;;;;5137628;27;20046;-64
2022/08/13 04:21:08;;;;;;;5.45;2.40;;;20.40;50.50;;;;;;5137361;27;20065;-68
2022/08/13 04:23:36;;;;;;;4.00;2.85;;;20.40;50.60;;;;;;5136200;27;20445;-69
2022/08/13 04:26:02;;;;;;;4.10;3.03;;;20.40;50.60;;;;;;5119442;27;20043;-69
2022/08/13 04:28:27;;;;;;;4.47;3.03;;;20.30;50.60;;;;;;5119381;27;20095;-68
2022/08/13 04:30:53;;;;;;;4.20;3.35;;;20.30;50.70;;;;;;5136332;27;20458;-70
2022/08/13 04:33:19;;;;;;;3.85;2.60;;;20.30;50.70;;;;;;5137788;27;20167;-70
2022/08/13 04:35:45;;;;;;;3.00;2.45;;;20.30;50.70;;;;;;5137582;27;20062;-68
2022/08/13 04:38:12;;;;;;;3.53;3.00;;;20.30;50.80;;;;;;5136057;27;20043;-64
2022/08/13 04:40:41;;;;;;;5.10;3.10;;;20.20;50.80;;;;;;5135637;27;20117;-64
2022/08/13 04:43:09;;;;;;;3.65;3.17;;;20.20;50.90;;;;;;5135904;27;20103;-64
2022/08/13 04:45:36;;;;;;;3.80;2.60;;;20.20;50.90;;;;;;5102064;27;20122;-64
2022/08/13 04:48:07;;;;;;;5.05;3.22;;;20.10;51.00;;;;;;5135646;27;20039;-70
2022/08/13 04:50:34;;;;;;;3.60;2.78;;;20.20;51.10;;;;;;5136942;27;20039;-69
2022/08/13 04:53:02;;;;;;;5.40;2.92;;;20.10;51.10;;;;;;5135842;27;20047;-69
2022/08/13 04:55:29;;;;;;;8.48;3.80;;;20.10;51.20;;;;;;5118724;27;20075;-69
2022/08/13 04:57:55;;;;;;;4.95;3.60;;;20.10;51.30;;;;;;5135944;27;20080;-69
2022/08/13 05:00:24;;;;;;;4.78;3.47;;;20.10;51.40;;;;;;5135601;27;20136;-68
2022/08/13 05:02:52;;;;;;;5.20;3.75;;;20.10;51.60;;;;;;5135910;27;20395;-70
2022/08/13 05:05:21;;;;;;;5.85;3.70;;;20.10;51.70;;;;;;5135893;27;20043;-70
2022/08/13 05:07:49;;;;;;;4.85;3.78;;;20.10;51.90;;;;;;5135433;27;20042;-69
2022/08/13 05:10:15;;;;;;;4.43;3.28;;;20.10;52.00;;;;;;5135404;27;20051;-69
2022/08/13 05:12:41;;;;;;;7.40;3.55;;;20.10;52.20;;;;;;5135152;27;20042;-69
2022/08/13 05:15:07;;;;;;;4.28;3.75;;;20.10;52.10;;;;;;5118315;27;20038;-69
2022/08/13 05:17:33;;;;;;;3.88;3.30;;;20.10;51.80;;;;;;5101122;27;20038;-69
2022/08/13 05:19:59;;;;;;;6.32;3.50;;;20.10;51.40;;;;;;5100878;27;20375;-68
2022/08/13 05:22:28;;;;;;;4.45;3.13;;;20.10;51.50;;;;;;5135063;27;20070;-68
2022/08/13 05:24:54;;;;;;;5.93;3.10;;;20.20;51.60;;;;;;5135120;27;20043;-68
2022/08/13 05:27:19;;;;;;;5.05;3.65;;;20.20;51.50;;;;;;5135066;27;20591;-69
2022/08/13 05:29:46;;;;;;;4.55;3.67;;;20.20;51.00;;;;;;5135003;27;20077;-70
2022/08/13 05:32:11;;;;;;;4.88;2.80;;;20.20;50.60;;;;;;5136199;27;20043;-65
2022/08/13 05:34:37;;;;;;;5.97;3.53;;;20.20;50.60;;;;;;5135954;27;20050;-65
2022/08/13 05:37:06;;;;;;;4.60;3.00;;;20.10;50.70;;;;;;5117531;27;20050;-69
2022/08/13 05:39:32;;;;;;;6.78;3.50;;;20.20;50.90;;;;;;5134929;27;20398;-70
2022/08/13 05:41:58;;;;;;;4.50;3.20;;;20.20;50.60;;;;;;5135796;27;20553;-70
2022/08/13 05:44:24;;;;;;;3.25;2.95;;;20.20;50.70;;;;;;5134601;27;20043;-69
2022/08/13 05:46:50;;;;;;;3.85;2.90;;;20.20;50.60;;;;;;5134531;27;20039;-69
2022/08/13 05:49:16;;;;;;;6.32;3.65;;;20.20;50.70;;;;;;5135747;27;20164;-68
2022/08/13 05:51:43;;;;;;;3.38;2.80;;;20.20;50.90;;;;;;5134277;27;20039;-68
2022/08/13 05:54:10;;;;;;;4.40;3.00;;;20.20;51.60;;;;;;5117369;27;20039;-70
2022/08/13 05:56:37;;;;;;;3.47;2.70;;;20.20;52.10;;;;;;5100388;27;20051;-69
2022/08/13 06:03:22;;;;;;;4.18;2.70;;;20.30;52.40;;;;;;5134376;27;20405;-69
2022/08/13 06:04:41;;;;;;;6.70;2.60;;;20.80;51.90;;;;;;5134020;27;20508;-64
2022/08/13 06:07:17;;;;;;;4.85;2.80;;;21.20;51.90;;;;;;5135170;27;20477;-64
2022/08/13 06:09:43;;;;;;;4.97;2.80;;;21.70;51.80;;;;;;5133944;27;20071;-68
2022/08/13 06:12:09;;;;;;;4.07;2.55;;;22.20;51.30;;;;;;5133872;27;20457;-69
2022/08/13 06:14:35;;;;;;;3.83;2.25;;;22.80;49.60;;;;;;5134100;27;20039;-69
2022/08/13 06:17:02;;;;;;;4.57;2.42;;;23.30;48.90;;;;;;5133850;27;20497;-69
2022/08/13 06:19:31;;;;;;;2.85;2.10;;;23.90;47.90;;;;;;5116685;27;20044;-63
2022/08/13 06:22:02;;;;;;;3.40;2.20;;;24.40;46.90;;;;;;5134970;27;20039;-64
2022/08/13 06:24:34;;;;;;;5.20;2.20;;;24.80;45.10;;;;;;5133112;27;20043;-64
2022/08/13 06:27:04;;;;;;;6.10;2.00;;;25.10;44.70;;;;;;5134848;27;20039;-64
2022/08/13 06:29:35;;;;;;;4.35;2.15;;;25.50;43.80;;;;;;5134990;27;20039;-65
2022/08/13 06:32:03;;;;;;;4.32;2.00;;;25.70;42.90;;;;;;5133518;27;20073;-64
2022/08/13 06:34:34;;;;;;;5.07;2.90;;;25.80;42.60;;;;;;5116786;27;20446;-64
2022/08/13 06:37:04;;;;;;;2.53;1.92;;;26.00;41.80;;;;;;5133647;27;20078;-64
2022/08/13 06:39:33;;;;;;;2.38;2.00;;;26.10;41.80;;;;;;5133615;27;20460;-65
2022/08/13 06:42:04;;;;;;;3.63;1.92;;;26.50;42.10;;;;;;5133358;27;20043;-65
2022/08/13 06:44:34;;;;;;;3.08;1.92;;;26.90;41.30;;;;;;5134512;27;20078;-64
2022/08/13 06:47:02;;;;;;;4.63;2.03;;;27.20;40.70;;;;;;5133391;27;20081;-64
2022/08/13 06:49:27;;;;;;;4.25;1.95;;;27.50;41.10;;;;;;5134711;27;20439;-64
2022/08/13 06:51:55;;;;;;;5.05;2.03;;;27.90;40.70;;;;;;5099380;27;20035;-63
2022/08/13 06:54:21;;;;;;;5.40;1.77;;;28.20;40.10;;;;;;5134340;27;20035;-63
2022/08/13 06:56:47;;;;;;;5.63;1.50;;;28.50;40.00;;;;;;5133117;27;20046;-63
2022/08/13 06:59:13;;;;;;;3.28;1.60;;;28.80;40.00;;;;;;5129531;27;20043;-68
2022/08/13 07:01:41;;;;;;;3.85;1.55;;;29.10;39.10;;;;;;5129615;27;20052;-69
2022/08/13 07:04:13;;;;;;;3.17;1.33;;;29.40;38.80;;;;;;5113878;28;20120;-68
2022/08/13 07:06:41;;;;;;;3.90;1.55;;;29.80;38.20;;;;;;5096170;28;20052;-69
2022/08/13 07:09:07;;;;;;;2.50;1.30;;;30.00;37.70;;;;;;5129836;27;20062;-70
2022/08/13 07:11:33;;;;;;;2.97;1.40;;;30.20;37.40;;;;;;5129502;27;20487;-69
2022/08/13 07:14:01;;;;;;;2.45;1.33;;;30.50;36.90;;;;;;5113605;28;20036;-69
2022/08/13 07:16:30;;;;;;;3.55;1.60;;;30.60;35.30;;;;;;5129684;27;20437;-69
2022/08/13 07:18:59;;;;;;;1.65;1.10;;;30.50;34.90;;;;;;5114017;28;20043;-69
2022/08/13 07:21:25;;;;;;;4.63;1.50;;;30.40;34.80;;;;;;5129100;27;20100;-70
2022/08/13 07:23:53;;;;;;;5.25;1.15;;;30.40;35.20;;;;;;5129290;27;20082;-69
2022/08/13 07:26:21;;;;;;;3.13;1.08;;;30.30;35.20;;;;;;5113534;28;20059;-68
2022/08/13 07:28:49;;;;;;;5.53;1.30;;;30.30;34.90;;;;;;5129479;27;20139;-69
2022/08/13 07:31:19;;;;;;;2.38;1.00;;;30.30;35.30;;;;;;5095131;28;20043;-69
2022/08/13 07:33:51;;;;;;;1.75;1.08;;;30.20;35.30;;;;;;5129386;27;20126;-69
2022/08/13 07:36:18;;;;;;;1.85;1.00;;;30.30;34.90;;;;;;5094437;28;20130;-69
2022/08/13 07:38:44;;;;;;;4.22;1.10;;;30.30;35.10;;;;;;5113190;28;20058;-70
2022/08/13 07:41:11;;;;;;;3.00;1.10;;;30.30;34.80;;;;;;5128967;28;20036;-69
2022/08/13 07:43:39;;;;;;;2.75;1.20;;;30.20;34.60;;;;;;5129155;28;20051;-70
2022/08/13 07:46:15;;;;;;;2.85;0.95;;;30.10;34.60;;;;;;5113237;28;20044;-70
2022/08/13 07:48:43;;;;;;;2.75;1.20;;;30.00;34.70;;;;;;5128952;28;20114;-70
2022/08/13 07:51:18;;;;;;;3.45;1.23;;;29.80;34.60;;;;;;5129008;28;20058;-70
2022/08/13 07:53:45;;;;;;;3.60;1.10;;;29.60;34.70;;;;;;5113316;28;20394;-70
2022/08/13 07:56:10;;;;;;;3.42;1.23;;;29.40;34.70;;;;;;5129000;28;20051;-70
2022/08/13 07:58:37;;;;;;;1.33;0.90;;;29.30;34.90;;;;;;5128818;28;20062;-69
2022/08/13 08:01:06;;;;;;;2.58;1.33;;;29.10;35.20;;;;;;5128810;28;20044;-69
2022/08/13 08:03:45;;;;;;;4.90;1.20;;;29.00;35.00;;;;;;5111840;28;20040;-69
2022/08/13 08:06:14;;;;;;;2.53;1.27;;;29.00;35.50;;;;;;5113151;28;20071;-68
2022/08/13 08:08:42;;;;;;;2.63;0.93;;;29.00;35.30;;;;;;5112854;28;20032;-69
2022/08/13 08:12:30;;;;;;;1.40;1.10;;;28.90;35.60;;;;;;5128804;28;20118;-70
2022/08/13 08:14:00;;;;;;;2.75;1.23;;;28.90;35.90;;;;;;5112786;28;20487;-69
2022/08/13 08:16:29;;;;;;;1.70;1.00;;;29.00;35.70;;;;;;5128720;28;20039;-71
2022/08/13 08:18:55;;;;;;;3.13;1.00;;;29.00;35.10;;;;;;5113007;28;20048;-69
2022/08/13 08:21:25;;;;;;;1.48;1.25;;;29.10;35.20;;;;;;5112794;28;20054;-70
2022/08/13 08:23:59;;;;;;;2.10;1.02;;;29.10;35.10;;;;;;5128673;28;20124;-70
2022/08/13 08:26:30;;;;;;;2.63;0.80;;;29.20;35.10;;;;;;5094815;28;20043;-70
2022/08/13 08:28:58;;;;;;;2.72;1.10;;;29.20;34.70;;;;;;5128812;28;20148;-70
2022/08/13 08:31:25;;;;;;;2.88;1.20;;;29.20;34.40;;;;;;5128700;28;20046;-69
2022/08/13 08:33:56;;;;;;;5.05;1.02;;;29.30;34.40;;;;;;5128969;28;20044;-69
2022/08/13 08:36:22;;;;;;;1.42;0.90;;;29.40;34.30;;;;;;5128897;28;20051;-69
2022/08/13 08:44:23;;;;;;;1.83;1.00;;;29.70;34.50;;;;;;5128536;28;20051;-70
2022/08/13 08:46:52;;;;;;;4.35;1.40;;;29.80;34.20;;;;;;5114621;28;20364;-69
2022/08/13 08:49:21;;;;;;;2.92;1.00;;;29.90;33.60;;;;;;5132301;27;20494;-70
2022/08/13 08:51:49;;;;;;;3.33;0.90;;;30.00;33.70;;;;;;5132099;27;20426;-69
2022/08/13 08:54:16;;;;;;;3.17;1.13;;;30.00;33.30;;;;;;5116259;28;20122;-69
2022/08/13 08:56:42;;;;;;;1.17;0.82;;;30.10;33.50;;;;;;5116127;28;20046;-69
2022/08/13 08:59:10;;;;;;;2.33;0.80;;;30.10;33.20;;;;;;5114641;28;20055;-70
2022/08/13 09:01:36;;;;;;;2.03;1.10;;;30.10;33.10;;;;;;5116116;28;20047;-73
2022/08/13 09:04:05;;;;;;;1.88;1.05;;;30.10;32.80;;;;;;5098002;28;20088;-72
2022/08/13 09:06:31;;;;;;;7.78;1.67;;;30.10;33.20;;;;;;5131933;27;20039;-74
2022/08/13 09:09:02;;;;;;;2.78;1.20;;;30.10;33.30;;;;;;5131785;27;20046;-73
2022/08/13 09:11:34;;;;;;;5.80;1.27;;;30.20;33.40;;;;;;5131811;27;20570;-72
2022/08/13 09:14:05;;;;;;;3.00;0.98;;;30.20;33.30;;;;;;5116176;28;20165;-73
2022/08/13 09:16:33;;;;;;;2.05;1.00;;;30.30;33.10;;;;;;5097549;28;20184;-69
2022/08/13 09:18:59;;;;;;;2.20;0.93;;;30.40;33.30;;;;;;5115823;28;20039;-69
2022/08/13 09:21:25;;;;;;;3.80;1.00;;;30.40;32.90;;;;;;5115523;28;20195;-65
2022/08/13 09:23:52;;;;;;;2.97;1.00;;;30.50;32.90;;;;;;5114395;28;20157;-65
2022/08/13 09:26:18;;;;;;;2.53;1.33;;;30.60;32.60;;;;;;5131420;27;20054;-64
2022/08/13 09:28:45;;;;;;;2.60;1.10;;;30.60;32.70;;;;;;5114354;28;20440;-64
2022/08/13 09:31:11;;;;;;;1.58;0.73;;;30.70;32.80;;;;;;5131468;27;20123;-65
2022/08/13 09:33:40;;;;;;;3.88;0.80;;;30.70;32.50;;;;;;5114239;28;20465;-65
2022/08/13 09:36:09;;;;;;;2.85;1.33;;;30.80;32.40;;;;;;5131563;27;20391;-64
2022/08/13 09:38:37;;;;;;;5.35;1.00;;;30.80;32.70;;;;;;5131152;27;20053;-65
2022/08/13 09:41:21;;;;;;;3.83;1.10;;;30.80;32.70;;;;;;5113887;28;20055;-65
2022/08/13 09:43:47;;;;;;;3.55;1.30;;;30.80;32.20;;;;;;5114070;28;20122;-65
2022/08/13 09:46:15;;;;;;;3.75;1.10;;;30.90;32.30;;;;;;5115271;28;20036;-64
2022/08/13 09:48:41;;;;;;;1.80;1.00;;;31.00;32.50;;;;;;5131019;27;20088;-63
2022/08/13 09:51:13;;;;;;;5.28;0.90;;;31.00;32.60;;;;;;5113807;28;20056;-63
2022/08/13 09:53:40;;;;;;;1.83;0.82;;;31.10;32.40;;;;;;5096962;28;20044;-63
2022/08/13 09:56:06;;;;;;;3.78;1.27;;;31.10;32.80;;;;;;5113791;28;20034;-65
2022/08/13 09:58:32;;;;;;;3.15;1.10;;;31.00;33.10;;;;;;5112722;28;20047;-65
2022/08/13 10:00:58;;;;;;;1.73;1.15;;;31.10;32.90;;;;;;5113553;28;20096;-63
2022/08/13 10:03:24;;;;;;;3.72;1.00;;;31.20;32.30;;;;;;5130831;27;20051;-64
2022/08/13 10:05:50;;;;;;;2.40;1.17;;;31.30;32.30;;;;;;5114763;28;20036;-64
2022/08/13 10:08:18;;;;;;;2.70;1.10;;;31.40;31.90;;;;;;5115047;28;20043;-64
2022/08/13 10:10:50;;;;;;;3.63;1.17;;;31.40;32.30;;;;;;5114851;28;20047;-68
2022/08/13 10:13:15;;;;;;;6.88;1.02;;;31.50;32.00;;;;;;5130770;27;20394;-69
2022/08/13 10:15:41;;;;;;;2.80;0.98;;;31.50;31.80;;;;;;5130525;27;20040;-69
2022/08/13 10:18:09;;;;;;;1.92;0.90;;;31.40;31.80;;;;;;5130678;27;20040;-70
2022/08/13 10:20:38;;;;;;;4.03;1.20;;;31.30;31.60;;;;;;5114296;28;20043;-64
2022/08/13 10:23:06;;;;;;;3.55;1.00;;;31.30;31.50;;;;;;5114715;27;20032;-63
2022/08/13 10:25:32;;;;;;;2.63;1.08;;;31.30;31.70;;;;;;5130350;27;20548;-64
2022/08/13 10:27:58;;;;;;;2.42;0.93;;;31.20;31.10;;;;;;5114531;28;20157;-64
2022/08/13 10:30:26;;;;;;;3.70;1.23;;;31.20;31.40;;;;;;5114443;28;20044;-64
2022/08/13 10:32:55;;;;;;;3.55;1.20;;;31.20;31.80;;;;;;5130136;27;20532;-64
2022/08/13 10:35:23;;;;;;;3.67;1.10;;;31.30;31.80;;;;;;5130348;27;20089;-64
2022/08/13 10:37:53;;;;;;;3.70;1.58;;;31.40;31.80;;;;;;5095924;28;20051;-64
2022/08/13 10:40:20;;;;;;;3.05;1.08;;;31.50;31.90;;;;;;5114143;28;20122;-63
2022/08/13 10:42:46;;;;;;;3.17;1.20;;;31.60;31.40;;;;;;5096178;28;20043;-69
2022/08/13 10:45:15;;;;;;;6.72;1.40;;;31.60;30.70;;;;;;5129838;27;20077;-63
2022/08/13 10:47:46;;;;;;;2.53;0.95;;;31.70;30.70;;;;;;5129888;27;20050;-64
2022/08/13 10:50:13;;;;;;;3.75;1.17;;;31.60;30.80;;;;;;5129874;27;20347;-64
2022/08/13 10:52:39;;;;;;;2.50;1.00;;;31.70;31.10;;;;;;5095844;28;20046;-67
2022/08/13 10:55:08;;;;;;;3.42;1.00;;;31.70;31.30;;;;;;5113973;28;20036;-70
2022/08/13 10:57:37;;;;;;;1.80;0.80;;;31.70;31.30;;;;;;5113937;28;20035;-69
2022/08/13 11:00:05;;;;;;;3.25;0.90;;;31.70;30.70;;;;;;5095912;28;20059;-69
2022/08/13 11:02:30;;;;;;;4.40;1.13;;;31.60;30.40;;;;;;5113767;28;20075;-69
2022/08/13 11:04:57;;;;;;;2.63;0.90;;;31.60;30.50;;;;;;5113849;28;20368;-70
2022/08/13 11:07:25;;;;;;;5.88;0.90;;;31.60;30.40;;;;;;5095646;28;20078;-70
2022/08/13 11:09:51;;;;;;;1.98;0.95;;;31.50;30.30;;;;;;5095716;28;20047;-68
2022/08/13 11:12:18;;;;;;;2.22;1.25;;;31.50;31.00;;;;;;5114007;28;20045;-69
2022/08/13 11:14:46;;;;;;;3.05;1.05;;;31.50;30.80;;;;;;5113553;28;20063;-68
2022/08/13 11:17:17;;;;;;;2.47;0.93;;;31.50;30.50;;;;;;5129364;27;20043;-69
2022/08/13 11:19:45;;;;;;;3.15;0.90;;;31.50;30.90;;;;;;5113514;28;20542;-69
2022/08/13 11:22:12;;;;;;;2.45;1.60;;;31.60;30.90;;;;;;5113483;28;20039;-68
2022/08/13 11:24:38;;;;;;;2.75;0.95;;;31.60;30.50;;;;;;5129329;27;20084;-68
2022/08/13 11:27:05;;;;;;;2.25;1.10;;;31.60;30.70;;;;;;5113267;28;20074;-69
2022/08/13 11:29:31;;;;;;;1.90;1.20;;;31.50;30.50;;;;;;5112446;28;20035;-68
2022/08/13 11:31:57;;;;;;;3.60;1.02;;;31.60;30.50;;;;;;5113310;28;20510;-68
2022/08/13 11:34:24;;;;;;;4.15;0.95;;;31.60;30.50;;;;;;5113469;28;20040;-68
2022/08/13 11:36:50;;;;;;;5.55;1.02;;;31.60;30.10;;;;;;5112209;28;20104;-69
2022/08/13 11:39:15;;;;;;;2.60;0.90;;;31.70;30.00;;;;;;5129405;27;20047;-68
2022/08/13 11:41:42;;;;;;;4.28;1.00;;;31.70;30.20;;;;;;5129061;28;20498;-69
2022/08/13 11:44:08;;;;;;;2.13;0.95;;;31.70;30.20;;;;;;5113456;28;20042;-68
2022/08/13 11:46:34;;;;;;;2.78;0.90;;;31.60;30.40;;;;;;5112020;28;20044;-68
2022/08/13 11:48:59;;;;;;;1.85;0.98;;;31.60;30.60;;;;;;5113412;28;20157;-68
2022/08/13 11:51:25;;;;;;;3.35;1.05;;;31.60;30.70;;;;;;5129269;28;20040;-68
2022/08/13 11:53:51;;;;;;;1.50;1.08;;;31.60;30.40;;;;;;5129202;28;20553;-68
2022/08/13 11:56:16;;;;;;;2.08;1.27;;;31.70;30.60;;;;;;5113058;28;20376;-68
2022/08/13 11:58:42;;;;;;;1.20;1.08;;;31.70;30.30;;;;;;5128962;28;20047;-69
2022/08/13 12:01:08;;;;;;;1.55;1.15;;;31.70;30.30;;;;;;5094847;28;20060;-69
2022/08/13 12:03:39;;;;;;;2.83;1.02;;;31.70;30.00;;;;;;5113036;28;20088;-67
2022/08/13 12:06:05;;;;;;;1.77;0.90;;;31.80;30.10;;;;;;5095534;28;20506;-67
2022/08/13 12:08:31;;;;;;;1.15;0.95;;;31.80;30.20;;;;;;5128815;28;20118;-67
2022/08/13 12:10:57;;;;;;;3.42;1.13;;;31.90;30.60;;;;;;5113022;28;20081;-67
2022/08/13 12:13:23;;;;;;;1.30;1.00;;;31.90;30.30;;;;;;5077960;28;20047;-68
2022/08/13 12:15:49;;;;;;;1.92;1.00;;;32.00;30.00;;;;;;5112871;28;20429;-68
2022/08/13 12:18:17;;;;;;;3.90;0.80;;;32.00;30.10;;;;;;5113020;28;20044;-63
2022/08/13 12:20:43;;;;;;;4.60;1.30;;;32.10;30.00;;;;;;5113105;28;20071;-63
2022/08/13 12:23:09;;;;;;;1.63;1.10;;;32.20;30.00;;;;;;5133050;27;20077;-63
2022/08/13 12:25:35;;;;;;;2.25;1.23;;;32.20;30.00;;;;;;5132548;27;20471;-64
2022/08/13 12:28:13;;;;;;;2.63;1.10;;;32.30;30.00;;;;;;5132646;27;20067;-64
2022/08/13 12:30:40;;;;;;;3.45;1.40;;;32.30;29.90;;;;;;5132621;27;20047;-63
2022/08/13 12:33:06;;;;;;;2.53;1.00;;;32.30;29.70;;;;;;5116667;28;20036;-64
2022/08/13 12:35:32;;;;;;;2.50;0.90;;;32.30;30.00;;;;;;5098521;28;20039;-64
2022/08/13 12:37:58;;;;;;;1.52;1.13;;;32.30;29.70;;;;;;5115218;28;20256;-64
2022/08/13 12:40:24;;;;;;;1.67;1.00;;;32.30;29.60;;;;;;5132281;27;20167;-64
2022/08/13 12:42:50;;;;;;;1.48;1.00;;;32.30;29.50;;;;;;5098399;28;20038;-63
2022/08/13 12:45:16;;;;;;;2.67;1.20;;;32.30;29.80;;;;;;5132261;27;20039;-64
2022/08/13 12:47:45;;;;;;;1.73;0.98;;;32.30;29.90;;;;;;5132498;27;20391;-63
2022/08/13 12:50:11;;;;;;;1.20;0.80;;;32.30;29.80;;;;;;5116387;28;20122;-63
2022/08/13 12:52:37;;;;;;;3.08;1.17;;;32.30;29.90;;;;;;5116244;28;20501;-63
2022/08/13 12:55:06;;;;;;;1.13;0.80;;;32.30;29.70;;;;;;5132443;27;20100;-63
2022/08/13 12:57:32;;;;;;;3.20;1.00;;;32.30;29.70;;;;;;5116285;28;20176;-62
2022/08/13 12:59:58;;;;;;;1.35;1.05;;;32.30;29.70;;;;;;5114757;28;20487;-64
2022/08/13 13:02:24;;;;;;;1.40;0.90;;;32.40;29.60;;;;;;5116177;28;20400;-64
2022/08/13 13:04:50;;;;;;;3.00;1.10;;;32.40;29.80;;;;;;5115998;28;20051;-63
2022/08/13 13:07:15;;;;;;;1.83;1.10;;;32.50;29.70;;;;;;5131693;27;20040;-65
2022/08/13 13:09:41;;;;;;;1.17;0.90;;;32.40;29.70;;;;;;5114653;28;20120;-63
2022/08/13 13:12:07;;;;;;;1.98;1.13;;;32.40;29.90;;;;;;5115742;28;20055;-64
2022/08/13 13:14:33;;;;;;;2.53;1.10;;;32.30;30.00;;;;;;5114524;28;20040;-63
2022/08/13 13:16:58;;;;;;;1.75;1.15;;;32.30;30.00;;;;;;5115860;28;20048;-63